F37 weather

Carrizozo Municipal Airport
Carrizozo, New Mexico, United States

Public forecast

Using degrees Fahrenheit for public forecast. Weather courtesy of forecast.io.

Closest aviation weather report (METAR) to Carrizozo Municipal Airport

Closest report is Sierra Blanca Regional Airport, 21.2 nm (39.3 km) ESE. Retrieved 2020/02/19 09:35 UTC (21 seconds ago):

KSRR 190935Z AUTO 13011KT 10SM OVC009 00/M02 A3022 RMK AO2

Closest aviation forecast (TAF) to Carrizozo Municipal Airport

Closest forecast is Holloman Air Force Base, 49.0 nm (90.7 km) SSW. Retrieved 2020/02/19 09:03 UTC (32 minutes ago):

TAF KHMN 190900Z 1909/2015 VRB06KT 9999 SCT250 QNH3015INS BECMG 1917/1918 17012G18KT 9999 BKN250 QNH3007INS BECMG 2002/2003 VRB06KT 9999 FEW250 QNH3009INS BECMG 2013/2014 01010G15KT 9999 SKC QNH3020INS TX18/1922Z TN01/1914Z